Date,TemperatureHighF,TemperatureAvgF,TemperatureLowF,DewpointHighF,DewpointAvgF,DewpointLowF,HumidityHigh,HumidityAvg,HumidityLow,PressureMaxIn,PressureMinIn,WindSpeedMaxMPH,WindSpeedAvgMPH,GustSpeedMaxMPH,PrecipitationSumIn
2013-1-1,33.8,27.4,13.6,27.2,19.8,7.4,83,73,63,29.99,29.82,6,2,9,0.00
2013-1-2,27.6,17.6,9.4,16.2,10.8,4.1,87,75,56,30.18,29.97,4,1,8,0.01
2013-1-3,25.5,15.3,3.2,17.1,7.0,-3.2,78,70,57,30.21,30.06,5,1,9,0.01
2013-1-4,36.2,28.8,23.5,25.0,21.4,16.7,86,74,60,30.06,29.90,5,2,9,0.05
2013-1-5,38.1,30.3,24.4,26.1,21.7,18.2,80,71,58,30.28,29.95,7,2,10,0.02
2013-1-6,41.3,32.2,24.9,30.0,26.1,19.5,95,79,63,30.22,29.97,4,1,8,0.02
2013-1-7,34.5,30.6,24.9,28.8,24.3,19.6,87,77,61,30.40,30.03,8,1,11,0.00
2013-1-8,44.2,34.5,24.3,29.6,26.1,20.1,85,72,53,30.40,30.33,6,2,14,0.00
2013-1-9,40.8,35.5,28.7,36.0,29.9,24.7,87,80,67,30.39,30.10,6,2,10,0.00
2013-1-10,41.1,36.5,29.9,31.0,25.3,23.2,79,64,52,30.56,30.18,7,3,15,0.00
2013-1-11,38.8,32.5,27.0,38.8,28.8,22.6,100,86,73,30.54,30.17,5,2,8,0.27
2013-1-12,43.2,40.1,37.5,43.2,40.1,37.4,100,100,99,30.19,30.12,3,0,8,0.03
2013-1-13,44.8,41.6,37.7,44.8,41.6,37.7,100,100,100,30.16,30.00,6,1,8,0.00
2013-1-14,49.1,42.0,31.9,49.1,38.6,25.5,100,88,71,30.31,29.89,7,3,13,0.06
2013-1-15,33.4,31.1,27.6,26.1,24.6,22.4,86,77,71,30.35,30.23,5,1,11,0.01
2013-1-16,31.6,29.6,27.0,31.1,28.2,22.4,99,95,74,30.25,29.84,3,0,8,0.00
2013-1-17,38.2,30.5,22.5,31.7,26.0,12.2,98,84,64,30.12,29.89,5,1,8,0.24
2013-1-18,24.6,19.2,14.4,13.3,7.4,1.8,73,60,44,30.47,30.05,6,2,11,0.00
2013-1-19,42.3,33.1,19.8,29.3,22.4,9.2,76,65,53,30.39,29.90,6,3,11,0.05
2013-1-20,47.8,36.4,22.9,32.5,23.4,8.4,80,61,28,29.99,29.64,7,3,11,0.01
2013-1-21,24.5,20.6,15.5,20.2,13.7,8.8,94,75,56,30.08,29.80,5,1,8,0.00
2013-1-22,19.7,14.7,6.7,16.7,2.4,-6.4,94,60,40,30.15,29.80,5,2,9,0.00
2013-1-23,14.8,7.0,1.7,1.1,-3.3,-6.0,79,63,44,30.21,30.12,4,1,12,0.00
2013-1-24,16.8,7.7,-1.0,2.1,-3.1,-6.2,80,62,40,30.36,30.16,8,3,12,0.00
2013-1-25,17.2,12.0,5.5,11.5,3.2,-1.4,90,69,44,30.41,30.08,6,2,10,0.00
2013-1-26,20.3,13.2,8.0,9.8,6.0,2.5,92,74,51,30.36,30.06,7,3,16,0.00
2013-1-27,28.1,18.6,10.4,10.0,4.2,-0.4,85,56,31,30.52,30.35,8,2,12,0.00
2013-1-28,30.2,23.8,17.3,30.0,18.4,-0.6,99,81,44,30.51,30.00,5,1,8,0.00
2013-1-29,38.2,34.1,30.1,37.4,33.7,29.9,100,98,95,30.16,30.01,5,2,8,0.20
2013-1-30,54.1,47.0,35.2,54.1,47.0,35.2,100,100,100,30.11,29.38,8,4,15,0.13
2013-1-31,57.4,41.7,24.2,56.8,33.1,13.1,100,73,45,29.66,28.99,14,5,21,0.64
2013-2-1,27.6,22.6,18.0,17.9,11.0,5.3,76,61,46,30.17,29.66,7,2,10,0.00
2013-2-2,26.2,19.4,11.8,15.8,10.1,6.0,90,68,44,30.26,30.07,8,2,12,0.00
2013-2-3,28.1,20.4,13.1,18.3,14.9,11.0,94,80,60,30.07,29.80,4,1,8,0.03
2013-2-4,27.2,21.1,16.8,17.2,11.5,6.2,92,67,47,29.97,29.79,4,1,8,0.00
2013-2-5,28.2,22.8,18.9,21.9,17.7,11.0,93,81,66,30.01,29.92,4,1,8,0.00
2013-2-6,34.7,26.6,18.9,25.6,17.8,1.0,97,72,38,30.35,29.92,5,2,11,0.02
2013-2-7,31.4,21.7,13.7,14.6,7.2,2.9,74,54,37,30.53,30.34,5,2,8,0.00
2013-2-8,27.9,25.0,20.4,26.1,21.4,13.2,95,87,64,30.41,29.69,9,5,18,0.00
2013-2-9,23.1,18.6,12.3,19.8,14.0,4.7,95,83,66,30.33,29.76,11,7,23,0.00
2013-2-10,36.2,21.3,7.8,5.8,1.7,-3.4,72,45,20,30.50,30.33,6,2,11,0.00
2013-2-11,40.0,34.6,24.8,40.0,32.4,5.9,100,92,44,30.36,29.68,7,2,9,0.15
2013-2-12,42.6,35.4,31.9,35.0,28.9,24.4,100,78,57,29.94,29.69,6,1,11,0.00
2013-2-13,41.3,33.2,24.4,28.8,23.6,20.1,94,68,50,29.93,29.72,4,1,8,0.00
2013-2-14,40.9,32.5,24.3,28.4,24.6,21.0,95,74,50,29.99,29.72,6,1,10,0.03
2013-2-15,49.4,39.0,29.4,32.5,28.9,25.4,92,68,48,30.00,29.91,7,2,11,0.00
2013-2-16,32.4,28.0,23.6,30.6,21.1,14.6,95,76,61,29.98,29.74,8,3,15,0.01
2013-2-17,24.2,18.4,11.5,14.5,5.1,1.0,68,56,37,29.89,29.61,10,5,18,0.00
2013-2-18,30.2,19.3,9.8,10.2,4.5,1.5,70,54,36,30.23,29.89,8,3,15,0.01
2013-2-19,40.2,32.9,24.5,37.6,25.0,9.2,98,74,50,30.23,29.64,9,2,17,0.21
2013-2-20,34.5,26.1,19.7,32.8,16.3,7.8,96,68,47,29.90,29.64,5,3,13,0.06
2013-2-21,27.9,21.1,16.6,14.9,12.6,10.7,81,70,56,30.34,29.89,9,4,15,0.01
2013-2-22,35.7,26.3,15.5,26.2,19.7,13.1,92,77,58,30.44,30.31,7,2,12,0.04
2013-2-23,34.6,31.9,29.3,33.8,30.4,25.8,98,94,84,30.31,29.86,7,4,10,0.05
2013-2-24,36.6,33.2,29.1,35.5,30.9,24.8,98,91,78,29.96,29.75,7,3,14,0.04
2013-2-25,41.1,32.9,27.5,29.0,26.2,24.0,90,77,59,30.25,29.96,7,2,14,0.00
2013-2-26,38.6,32.9,26.7,28.8,26.3,23.5,91,77,63,30.32,30.03,8,3,11,0.01
2013-2-27,40.9,36.8,31.3,39.4,35.7,28.8,99,96,90,30.02,29.54,12,6,19,0.70
2013-2-28,44.4,37.0,33.4,40.2,35.3,32.4,100,94,77,29.63,29.55,4,1,8,0.03
2013-3-1,39.9,34.2,30.3,32.5,30.3,25.8,96,86,69,29.76,29.59,8,3,10,0.01
2013-3-2,32.9,29.3,24.1,26.5,24.6,21.6,91,83,75,29.76,29.70,6,3,11,0.00
2013-3-3,28.6,24.7,22.0,24.7,20.5,16.7,91,84,75,29.75,29.68,6,4,12,0.00
2013-3-4,35.1,27.3,22.8,25.7,21.0,18.2,86,77,63,29.89,29.74,8,5,17,0.02
2013-3-5,41.1,32.7,25.5,29.2,25.7,21.7,87,76,59,30.06,29.89,9,3,16,0.00
2013-3-6,37.3,34.4,32.5,34.1,29.9,27.1,93,83,74,30.04,29.96,8,5,20,0.01
2013-3-7,33.0,30.8,28.2,30.8,28.0,25.7,96,89,79,30.09,29.99,8,5,18,0.05
2013-3-8,34.9,29.9,26.5,31.5,27.6,24.9,97,92,80,30.24,30.00,7,4,11,0.10
2013-3-9,47.8,35.3,25.5,28.5,25.3,21.7,87,68,45,30.34,30.23,7,3,10,0.14
2013-3-10,49.0,38.9,30.0,33.6,28.7,23.1,90,68,49,30.39,30.28,5,2,10,0.00
2013-3-11,50.0,40.4,31.5,43.5,36.9,30.2,99,88,68,30.31,30.11,8,4,24,0.00
2013-3-12,51.2,46.8,36.8,51.2,46.2,34.4,100,98,91,30.11,29.68,10,5,14,0.95
2013-3-13,45.3,37.0,31.4,34.3,28.7,24.9,91,73,51,29.85,29.77,6,2,10,0.01
2013-3-14,32.3,26.5,21.8,26.6,16.9,12.1,93,67,53,29.91,29.82,8,3,15,0.01
2013-3-15,37.0,29.0,19.2,29.7,19.8,11.4,85,69,46,29.94,29.72,6,2,10,0.00
2013-3-16,33.6,29.6,23.5,27.8,20.3,14.6,89,69,47,29.91,29.76,7,2,13,0.00
2013-3-17,33.4,26.8,19.6,24.2,12.7,7.4,89,57,35,30.33,29.91,8,3,16,0.00
2013-3-18,32.7,25.3,15.9,25.4,10.8,4.4,95,57,35,30.44,30.11,9,3,11,0.00
2013-3-19,34.9,30.5,26.6,33.4,29.2,25.1,98,95,92,30.10,29.70,10,4,16,0.14
2013-3-20,37.6,29.5,22.9,25.9,20.7,17.2,93,71,47,29.84,29.78,6,1,9,0.18
2013-3-21,34.2,27.9,22.4,21.5,15.7,10.1,88,62,38,29.84,29.64,5,2,10,0.04
2013-3-22,34.7,27.8,19.5,23.3,18.3,12.3,77,67,55,29.84,29.70,4,2,8,0.00
2013-3-23,40.1,33.0,28.2,26.6,21.6,18.0,79,64,43,29.90,29.77,7,3,14,0.01
2013-3-24,39.7,33.0,26.3,26.1,22.6,19.4,78,66,55,29.92,29.74,7,2,13,0.00
2013-3-25,42.2,35.7,30.5,28.4,25.1,23.2,77,66,51,29.76,29.48,9,3,13,0.00
2013-3-26,44.9,36.8,32.6,31.1,27.0,22.4,83,69,47,29.85,29.60,7,2,13,0.00
2013-3-27,48.0,38.7,29.3,29.1,24.6,20.4,75,58,37,29.95,29.84,7,2,10,0.00
2013-3-28,43.6,37.9,32.5,34.7,31.7,27.4,90,78,67,30.10,29.93,5,2,10,0.00
2013-3-29,48.6,41.2,35.0,33.1,30.1,28.3,78,65,50,30.12,30.04,6,3,15,0.00
2013-3-30,53.2,42.4,32.8,32.4,26.4,20.1,85,57,30,30.15,30.06,7,2,11,0.00
2013-3-31,52.8,43.4,34.6,39.2,28.2,20.3,95,56,37,30.14,29.69,11,4,18,0.11
2013-4-1,55.7,41.1,29.5,44.5,35.2,16.2,98,81,50,29.87,29.59,7,2,10,0.07
2013-4-2,38.0,31.0,24.9,21.0,14.3,9.2,72,51,32,30.03,29.87,6,2,10,0.00
2013-4-3,41.1,31.9,26.2,18.7,15.4,13.4,68,51,33,30.28,30.02,7,3,12,0.00
2013-4-4,52.0,37.7,26.3,28.2,19.9,14.5,72,51,25,30.37,30.07,7,3,12,0.00
2013-4-5,56.3,42.9,34.1,29.4,24.6,19.3,76,52,26,30.06,29.73,8,3,16,0.00
2013-4-6,44.5,35.5,26.9,24.7,12.5,6.1,74,41,22,30.32,29.96,7,4,14,0.00
2013-4-7,53.3,42.4,32.3,42.0,29.6,10.2,91,63,35,30.31,29.99,12,5,20,0.00
2013-4-8,63.9,52.3,40.7,42.5,39.6,37.1,95,65,39,30.10,29.98,6,2,13,0.00
2013-4-9,69.7,59.1,49.0,52.5,46.1,41.3,91,64,43,30.00,29.89,8,3,14,0.01
2013-4-10,57.9,51.0,46.2,51.6,46.5,40.5,99,86,58,29.96,29.85,5,2,11,0.22
2013-4-11,52.5,45.4,39.8,46.9,40.2,31.7,100,83,67,30.08,29.80,5,2,10,0.01
2013-4-12,39.6,36.3,34.5,36.2,34.1,31.9,97,92,74,30.09,29.76,11,5,15,0.32
2013-4-13,50.2,42.2,34.1,38.4,35.3,33.1,97,78,57,29.96,29.79,4,1,9,0.04
2013-4-14,48.4,41.6,34.8,36.2,30.2,25.3,91,65,46,30.24,29.94,7,2,14,0.00
2013-4-15,56.9,44.5,33.8,36.3,30.5,24.4,80,59,43,30.39,30.23,7,3,11,0.00
2013-4-16,62.4,50.5,39.1,52.2,44.1,30.9,94,79,62,30.38,30.11,11,5,16,0.00
2013-4-17,60.4,52.2,44.4,53.4,37.9,29.5,98,61,36,30.31,30.11,9,4,13,0.06
2013-4-18,58.9,50.4,43.2,47.0,36.7,29.0,94,61,41,30.36,30.12,12,6,16,0.00
2013-4-19,69.9,59.5,49.0,62.8,57.5,47.6,100,93,76,30.12,29.63,9,6,23,0.42
2013-4-20,59.5,46.5,34.5,58.9,35.5,25.4,98,69,37,30.29,29.64,7,3,13,0.29
2013-4-21,47.8,38.2,29.0,26.5,21.8,18.3,77,53,35,30.65,30.29,8,3,15,0.00
2013-4-22,54.4,43.0,32.4,34.3,28.7,20.0,87,60,33,30.70,30.52,11,4,16,0.00
2013-4-23,45.4,38.8,32.6,39.6,34.4,28.5,94,84,76,30.53,30.14,5,3,10,0.00
2013-4-24,70.3,52.8,39.6,49.8,44.3,38.2,97,76,45,30.14,29.81,8,4,14,0.00
2013-4-25,56.4,49.4,41.0,51.4,33.8,26.8,98,57,34,30.26,29.83,7,3,12,0.00
2013-4-26,58.5,49.3,41.6,37.7,30.1,23.7,57,48,36,30.43,30.26,7,3,11,0.00
2013-4-27,63.7,51.1,34.6,36.4,30.9,23.3,77,49,22,30.43,30.29,5,2,9,0.00
2013-4-28,68.9,55.3,42.5,44.7,35.8,29.4,67,49,31,30.32,30.18,9,3,16,0.00
2013-4-29,55.9,51.5,47.2,46.2,40.7,29.5,87,67,45,30.24,30.19,8,4,11,0.00
2013-4-30,66.9,55.9,46.1,42.5,34.1,27.0,78,48,24,30.33,30.22,8,3,10,0.00
2013-5-1,69.1,55.6,39.0,43.3,34.0,25.5,73,47,25,30.48,30.32,8,2,11,0.00
2013-5-2,77.1,60.1,40.9,46.9,42.0,35.8,94,56,28,30.45,30.28,5,2,14,0.00
2013-5-3,65.2,55.6,46.6,43.5,37.0,30.5,80,51,34,30.44,30.32,7,3,14,0.00
2013-5-4,70.2,55.4,40.7,46.5,41.9,31.7,96,65,26,30.36,30.20,6,2,13,0.00
2013-5-5,67.3,50.8,35.2,43.7,37.6,31.6,97,66,27,30.29,30.18,6,2,9,0.00
2013-5-6,69.5,52.6,34.5,51.2,44.2,33.5,99,76,40,30.28,30.13,4,2,8,0.00
2013-5-7,74.8,60.9,44.2,56.7,51.2,43.2,98,74,39,30.17,30.07,6,2,9,0.00
2013-5-8,66.2,59.7,55.6,61.1,57.5,53.9,98,93,79,30.13,29.98,7,2,11,0.14
2013-5-9,60.4,55.4,48.9,58.6,54.4,48.6,100,96,88,30.02,29.88,4,0,8,0.43
2013-5-10,75.8,63.3,50.0,59.2,54.1,49.9,100,75,44,29.99,29.87,4,1,9,0.01
2013-5-11,63.5,60.7,57.9,62.3,59.7,55.3,100,97,79,29.88,29.67,5,2,10,0.51
2013-5-12,63.4,54.3,42.4,59.4,46.2,27.5,100,76,37,29.86,29.63,5,1,8,0.00
2013-5-13,49.9,42.9,34.7,33.6,31.4,29.1,88,65,46,30.09,29.86,3,1,8,0.00
2013-5-14,55.5,44.6,33.1,34.9,30.9,26.5,91,62,35,30.11,30.02,4,1,9,0.00
2013-5-15,61.3,50.3,38.8,53.3,43.1,30.3,94,77,57,30.08,29.69,9,2,20,0.03
2013-5-16,78.1,64.9,50.0,54.1,45.6,37.2,99,56,24,29.82,29.70,3,1,8,0.00
2013-5-17,63.9,56.4,47.9,45.1,41.5,36.0,79,59,43,30.21,29.82,5,2,13,0.00
2013-5-18,67.1,56.7,44.7,49.0,43.6,39.2,84,64,37,30.30,30.21,7,2,13,0.00
2013-5-20,77.7,70.5,59.2,67.6,64.6,59.2,100,83,67,30.09,29.95,3,0,8,0.01
2013-5-21,85.4,72.4,61.4,71.7,66.4,61.4,100,83,57,29.97,29.79,4,1,8,0.00
2013-5-22,74.6,65.0,56.9,70.7,63.8,56.1,100,96,87,29.89,29.81,4,2,8,0.47
2013-5-23,70.3,65.4,63.4,69.1,65.3,63.4,100,100,94,29.86,29.72,4,2,10,1.06
2013-5-24,63.5,52.4,42.1,63.5,51.9,41.6,100,98,91,29.92,29.63,4,2,9,0.40
2013-5-25,42.6,41.3,40.5,42.3,40.8,39.4,99,98,96,29.93,29.83,5,2,10,0.26
2013-5-26,55.8,47.2,40.5,43.9,40.8,38.9,96,79,58,30.18,29.87,4,2,10,0.15
2013-5-27,68.1,55.1,40.5,46.0,41.2,36.9,94,63,33,30.23,30.12,2,0,8,0.23
2013-5-28,67.0,55.0,43.4,55.1,48.1,39.6,100,80,42,30.21,30.14,4,1,8,0.04
2013-5-29,77.2,64.2,54.8,70.1,62.0,54.8,100,93,75,30.15,29.99,6,1,9,1.00
2013-5-30,85.2,73.3,61.5,72.8,67.3,61.5,100,83,59,30.10,30.02,2,0,8,0.01
2013-5-31,88.6,76.5,64.0,72.8,66.6,61.1,100,75,42,30.09,29.95,4,1,8,0.00
2013-6-1,85.9,76.2,66.3,71.8,67.3,60.1,94,75,54,29.98,29.86,5,1,13,0.00
2013-6-2,83.1,74.1,68.3,72.9,69.2,66.7,98,85,66,29.87,29.71,6,2,13,0.36
2013-6-3,72.9,66.1,54.7,67.5,62.3,44.6,100,88,71,29.88,29.75,1,0,8,1.04
2013-6-4,67.2,57.7,46.7,50.7,45.4,41.7,84,65,46,30.12,29.88,3,1,8,0.00
2013-6-5,69.7,59.6,47.0,54.7,48.0,42.1,91,67,45,30.20,30.10,3,1,8,0.00
2013-6-6,66.5,57.3,48.1,57.2,51.8,45.8,98,82,65,30.16,30.04,6,2,8,0.15
2013-6-7,57.5,55.2,53.0,57.2,54.7,51.9,99,98,96,30.04,29.71,3,2,8,1.33
2013-6-8,71.3,59.6,51.4,65.4,57.7,51.2,100,94,75,30.06,29.65,4,1,9,0.64
2013-6-9,74.1,64.4,53.5,63.0,58.8,53.4,100,84,59,30.17,30.06,1,0,8,0.00
2013-6-10,66.7,60.7,55.9,62.9,58.5,54.9,99,93,75,30.17,29.88,6,1,8,0.99
2013-6-11,72.0,62.9,57.3,69.3,61.5,56.2,100,95,82,29.87,29.57,4,1,8,0.34
2013-6-12,67.9,61.2,53.2,57.2,54.4,51.8,97,79,60,29.84,29.64,3,1,10,0.00
2013-6-13,56.0,53.6,50.2,55.0,52.9,49.9,100,97,90,29.83,29.59,4,1,10,1.80
2013-6-14,67.5,56.2,48.7,62.9,54.3,48.2,99,93,72,29.86,29.59,3,1,8,0.35
2013-6-15,72.6,63.6,53.9,58.7,54.3,50.2,97,74,47,29.99,29.87,2,0,8,0.00
2013-6-16,72.3,63.0,52.1,63.2,56.8,48.9,97,81,62,29.97,29.74,5,1,8,0.00
2013-6-17,80.3,67.5,58.8,68.4,61.3,56.8,100,83,51,29.91,29.80,5,1,8,0.00
2013-6-18,78.3,64.7,57.0,68.0,61.4,56.4,100,90,67,29.91,29.83,4,1,8,0.89
2013-6-19,69.2,59.8,50.9,59.3,51.7,43.8,100,77,43,30.17,29.89,3,0,8,0.00
2013-6-20,74.4,62.7,46.7,58.7,53.1,45.1,96,73,49,30.27,30.17,5,1,8,0.00
2013-6-21,78.7,68.0,55.8,67.2,60.4,54.1,96,77,62,30.26,30.20,3,1,8,0.00
2013-6-22,78.9,69.5,57.3,66.5,60.9,55.2,95,75,55,30.23,30.10,4,1,8,0.00
2013-6-23,84.4,74.0,62.6,73.6,66.5,57.5,96,78,60,30.16,30.02,5,2,8,0.00
2013-6-24,87.4,73.2,62.9,75.4,69.1,61.7,100,88,61,30.04,29.92,3,0,8,0.83
2013-6-25,84.7,72.2,62.6,76.5,68.8,62.6,100,90,60,29.98,29.77,4,1,9,0.67
2013-6-26,81.6,72.1,66.1,73.7,69.7,65.8,100,92,73,29.82,29.74,2,0,8,0.00
2013-6-27,80.2,70.5,62.5,72.6,68.2,62.5,100,93,74,29.81,29.57,4,1,8,0.32
2013-6-28,79.4,71.6,66.5,73.5,69.6,66.3,100,94,72,29.57,29.44,5,2,13,0.49
2013-6-29,77.7,70.7,63.9,70.4,67.3,63.9,100,90,68,29.69,29.47,5,1,8,0.02
2013-6-30,79.0,71.0,65.8,73.8,69.7,65.5,100,96,82,29.90,29.69,5,1,8,0.05
2013-7-1,72.4,70.4,68.1,72.4,70.4,68.1,100,100,99,30.04,29.89,4,1,8,0.78
2013-7-2,78.8,73.0,69.9,75.6,71.9,69.9,100,96,85,30.15,30.03,5,2,8,0.06
2013-7-3,82.4,74.6,69.5,74.9,72.2,69.3,100,93,75,30.21,30.13,4,1,9,0.00
2013-7-4,84.3,77.6,71.1,76.3,73.3,71.1,100,88,70,30.21,30.11,4,1,8,0.00
2013-7-5,86.7,78.8,72.2,76.9,72.9,70.7,96,83,65,30.17,30.05,4,1,8,0.00
2013-7-6,86.5,78.5,72.3,76.3,73.4,70.9,97,85,67,30.09,29.99,1,0,8,0.00
2013-7-7,88.4,77.7,69.9,79.4,73.1,69.1,100,86,63,30.03,29.90,4,0,8,0.00
2013-7-8,83.1,74.4,66.5,74.7,69.6,65.2,99,86,69,30.01,29.91,3,0,8,0.01
2013-7-9,80.5,71.9,63.6,74.8,69.6,63.6,100,93,77,30.06,29.98,3,0,8,0.06
2013-7-10,79.1,73.3,69.4,76.8,72.6,69.4,100,98,86,30.01,29.78,4,1,8,0.27
2013-7-11,78.7,72.0,64.9,72.4,69.0,62.5,100,91,71,29.92,29.76,1,0,8,0.00
2013-7-12,79.0,70.1,63.5,68.4,63.3,58.6,95,79,66,30.14,29.92,4,1,8,0.00
2013-7-13,73.8,68.8,64.0,71.7,66.6,58.6,99,93,73,30.29,30.14,2,1,8,0.00
2013-7-14,85.2,76.4,69.9,77.2,73.1,69.9,100,90,69,30.32,30.21,2,0,8,0.19
2013-7-15,87.2,77.3,70.1,77.8,72.6,69.0,100,86,62,30.22,30.12,2,0,8,0.00
2013-7-16,87.3,76.8,65.6,74.9,69.7,64.4,99,80,57,30.19,30.12,2,0,8,0.00
2013-7-17,89.2,78.2,68.0,76.4,71.5,67.1,99,81,58,30.18,30.03,1,0,8,0.00
2013-7-18,90.3,80.2,72.2,78.2,73.9,70.2,98,82,62,30.04,29.93,2,0,8,0.00
2013-7-19,89.7,81.1,72.0,78.4,74.9,71.2,99,82,65,29.94,29.74,4,1,8,0.00
2013-7-20,86.1,78.2,68.3,76.0,72.4,64.8,94,83,67,29.82,29.67,4,0,8,0.00
2013-7-21,81.2,72.9,63.9,68.4,64.3,59.5,92,76,55,29.95,29.82,2,0,8,0.00
2013-7-22,80.5,71.8,62.6,72.8,67.6,61.3,100,88,63,29.96,29.81,4,1,8,0.05
2013-7-23,83.3,73.0,68.8,75.6,71.5,68.8,100,95,71,29.80,29.53,3,1,8,0.60
2013-7-24,75.7,68.5,57.6,70.8,64.0,52.5,100,86,69,29.94,29.59,3,0,8,0.00
2013-7-25,66.3,60.4,54.5,61.7,55.4,49.6,94,84,75,30.07,29.94,2,0,8,0.00
2013-7-26,73.7,65.1,60.1,64.1,60.8,58.7,97,87,68,30.05,29.99,2,0,8,0.01
2013-7-27,78.3,68.6,59.2,67.0,62.4,58.7,100,82,57,30.05,29.96,5,1,8,0.00
2013-7-28,75.7,67.5,61.4,69.8,65.3,60.9,100,93,79,29.99,29.93,4,1,8,0.05
2013-7-29,79.1,70.2,63.5,69.6,64.4,56.1,100,84,56,30.08,29.95,4,1,8,0.00
2013-7-30,74.7,66.1,55.9,62.7,58.7,53.8,96,78,62,30.14,30.08,2,0,8,0.00
2013-7-31,77.5,67.3,57.3,66.2,60.1,55.3,97,79,49,30.15,30.03,2,0,8,0.00
2013-8-1,72.2,64.2,59.8,66.6,62.9,59.2,100,96,78,30.04,29.84,5,2,9,0.22
2013-8-2,76.6,68.9,61.9,67.9,64.0,60.2,100,85,64,29.88,29.78,2,0,8,0.03
2013-8-3,74.7,65.6,58.0,67.9,62.2,57.3,99,89,71,29.88,29.80,4,0,8,0.03
2013-8-4,74.7,62.9,54.5,63.1,57.6,52.6,100,84,59,29.96,29.83,2,0,8,0.01
2013-8-5,70.2,61.2,53.1,55.0,51.8,46.7,96,74,45,30.05,29.94,3,0,8,0.00
2013-8-6,74.9,63.2,49.2,61.4,55.1,47.8,97,77,48,30.13,30.05,5,1,8,0.00
2013-8-7,72.1,65.0,57.0,64.8,61.2,56.2,99,88,72,30.15,30.06,6,2,10,0.00
2013-8-8,78.0,70.6,65.4,72.2,68.9,64.7,100,95,79,30.07,29.99,5,2,8,0.01
2013-8-9,75.5,71.1,69.5,75.0,70.9,69.5,100,100,96,30.00,29.76,4,1,9,3.73
2013-8-10,78.4,69.0,59.8,70.7,62.9,49.6,100,82,60,30.04,29.83,2,0,8,0.01
2013-8-11,74.7,64.8,50.5,62.2,56.2,48.4,98,75,54,30.11,30.01,2,0,8,0.00
2013-8-12,76.9,66.9,58.5,64.7,61.1,57.9,99,83,53,30.03,29.92,3,0,8,0.00
2013-8-13,70.6,66.4,62.5,68.8,65.3,61.9,100,96,87,29.92,29.67,4,1,8,0.50
2013-8-14,68.2,60.6,50.8,62.0,54.8,50.3,100,82,61,30.02,29.73,2,0,8,0.00
2013-8-15,70.4,56.9,49.7,59.7,53.0,48.9,99,88,64,30.15,30.02,1,0,8,0.00
2013-8-16,75.1,62.2,51.7,61.8,55.7,50.6,99,81,51,30.21,30.12,2,0,8,0.00
2013-8-17,76.5,64.4,52.1,64.0,57.7,50.9,99,81,52,30.29,30.21,2,0,8,0.00
2013-8-18,73.3,64.3,56.6,66.9,61.2,55.4,99,90,63,30.27,30.12,2,0,8,0.00
2013-8-19,76.2,67.0,58.4,67.2,63.0,58.4,100,88,65,30.11,30.00,2,0,8,0.00
2013-8-20,79.8,68.7,58.8,67.6,63.2,58.6,100,84,58,30.12,30.02,2,0,8,0.00
2013-8-21,82.7,69.9,59.1,70.5,64.0,58.8,100,83,56,30.17,30.03,2,0,8,0.00
2013-8-22,78.2,70.7,64.8,71.9,67.8,62.7,100,91,77,30.05,29.85,6,1,8,0.00
2013-8-23,76.7,67.9,56.9,69.2,60.9,51.1,99,80,57,30.12,29.86,2,0,8,0.00
2013-8-24,73.8,62.5,51.9,60.7,53.8,48.9,94,75,51,30.35,30.13,2,0,8,0.00
2013-8-25,77.1,63.8,49.8,63.1,55.5,49.0,99,78,48,30.39,30.21,3,1,8,0.00
2013-8-26,73.0,66.4,61.2,68.6,62.9,55.9,100,89,72,30.21,29.89,2,0,8,0.30
2013-8-27,77.9,69.9,64.8,71.3,67.7,64.5,100,93,74,29.90,29.80,2,0,8,0.51
2013-8-28,82.4,70.6,62.8,73.3,67.5,62.8,100,91,62,29.90,29.82,3,0,8,0.01
2013-8-29,74.1,67.7,63.5,68.8,65.7,62.6,100,94,76,30.02,29.89,2,0,8,0.02
2013-8-30,78.5,69.3,62.5,71.3,66.5,62.4,100,92,73,30.02,29.84,2,0,8,0.00
2013-8-31,78.2,72.5,69.5,74.9,71.3,68.8,100,96,88,29.83,29.76,4,1,8,0.01
2013-9-1,77.1,72.8,70.4,75.3,72.4,70.4,100,99,91,29.83,29.78,4,1,8,0.23
2013-9-2,76.5,70.0,63.8,74.2,69.4,63.7,100,98,86,29.81,29.66,4,1,8,1.15
2013-9-3,71.2,64.5,57.8,66.5,63.0,56.7,100,95,81,29.85,29.70,1,0,8,0.03
2013-9-4,74.3,63.7,54.6,63.8,58.8,54.6,100,85,59,29.96,29.86,2,0,8,0.00
2013-9-5,69.6,60.3,51.0,60.9,54.2,45.1,97,82,53,30.15,29.89,2,0,10,0.00
2013-9-6,64.8,52.5,42.2,50.9,45.8,41.1,99,80,47,30.27,30.13,2,0,8,0.00
2013-9-7,72.4,59.6,46.7,60.2,51.8,44.1,93,77,47,30.13,29.88,3,0,8,0.00
2013-9-8,71.5,62.0,51.4,65.0,55.2,45.7,97,79,54,30.09,29.80,2,0,8,0.00
2013-9-9,65.9,55.4,41.8,55.2,48.3,41.0,98,79,56,30.25,30.08,5,1,8,0.00
2013-9-10,74.5,66.5,58.9,72.7,65.6,55.2,100,97,87,30.17,30.03,5,2,8,0.20
2013-9-11,89.3,77.7,68.4,81.0,74.1,67.2,100,90,67,30.09,29.94,4,1,8,0.00
2013-9-12,79.1,70.8,65.2,75.0,69.6,65.2,100,96,85,29.94,29.65,5,1,8,1.38
2013-9-13,70.6,64.2,51.9,65.3,61.6,48.8,100,92,77,29.82,29.60,2,0,9,0.04
2013-9-14,61.5,54.5,47.8,53.3,49.5,45.9,98,84,70,30.11,29.82,3,1,8,0.00
2013-9-15,58.2,46.0,40.8,51.2,44.6,40.3,100,95,72,30.20,30.09,0,0,8,0.00
2013-9-16,63.1,55.0,45.4,55.9,51.8,43.8,97,89,73,30.26,30.04,2,0,8,0.00
2013-9-17,60.3,50.1,37.7,48.3,42.5,36.4,97,77,48,30.44,30.26,2,0,8,0.00
2013-9-18,68.2,54.6,39.6,55.3,47.3,39.3,100,79,46,30.36,30.18,3,0,8,0.00
2013-9-19,73.2,57.4,44.5,60.6,50.6,43.7,100,80,46,30.19,30.07,3,0,8,0.00
2013-9-20,75.1,61.2,48.5,61.6,54.8,47.7,100,82,48,30.09,29.99,4,1,8,0.00
2013-9-21,67.6,61.8,55.7,65.3,60.4,55.2,100,95,83,30.00,29.65,7,3,13,0.29
2013-9-22,65.0,57.4,48.5,65.0,53.1,42.4,100,86,67,29.89,29.61,6,1,9,0.84
2013-9-23,56.3,48.9,40.6,46.2,43.0,39.4,97,81,62,30.06,29.89,3,1,9,0.09
2013-9-24,64.1,49.9,40.0,48.9,43.0,38.4,95,79,49,30.05,29.89,2,1,9,0.01
2013-9-25,66.0,54.0,42.3,54.3,48.3,41.5,100,83,58,29.97,29.89,2,0,8,0.00
2013-9-26,64.7,55.8,46.8,55.0,51.3,45.6,99,86,67,30.12,29.96,2,0,8,0.00
2013-9-27,60.7,53.4,46.2,54.6,50.7,45.7,100,91,78,30.29,30.12,1,0,8,0.00
2013-9-28,70.5,55.7,43.4,58.2,50.9,43.1,100,86,54,30.35,30.25,4,0,8,0.00
2013-9-29,69.5,56.3,46.3,57.6,51.7,46.0,100,86,55,30.25,30.08,3,0,8,0.00
2013-9-30,70.1,56.3,44.9,57.0,51.4,44.4,100,85,58,30.10,29.98,2,0,8,0.00
2013-10-1,73.6,64.0,48.2,61.1,57.7,48.2,100,81,60,30.01,29.91,2,0,8,0.00
2013-10-2,77.0,63.4,53.7,65.4,59.2,53.7,100,87,63,30.01,29.90,1,0,8,0.00
2013-10-3,74.2,62.0,50.0,58.4,52.6,48.1,96,73,46,30.11,30.00,1,0,8,0.00
2013-10-4,75.2,64.5,56.6,67.8,61.4,54.5,100,90,75,30.07,29.98,3,0,8,0.03
2013-10-5,70.4,63.0,59.1,66.4,62.3,59.1,100,98,85,30.09,30.02,2,0,8,0.11
2013-10-6,63.2,58.8,55.8,63.2,58.8,55.8,100,100,99,30.13,30.05,5,2,8,0.38
2013-10-7,70.0,62.4,52.0,68.5,62.1,51.5,100,99,92,30.06,29.74,11,3,16,0.78
2013-10-8,59.9,51.5,45.1,51.4,45.6,41.4,100,82,52,30.37,29.93,5,1,11,0.00
2013-10-9,61.7,51.2,43.6,46.9,43.2,38.8,92,75,48,30.45,30.34,4,1,9,0.00
2013-10-10,57.1,51.0,45.0,52.3,46.2,37.8,89,84,74,30.34,30.16,2,1,8,0.00
2013-10-11,69.5,58.8,51.4,61.2,51.5,39.5,94,78,49,30.15,30.07,3,1,8,0.00
2013-10-12,68.4,58.0,53.0,56.9,50.7,43.6,90,77,60,30.33,30.12,6,2,10,0.00
2013-10-13,63.1,53.7,45.7,52.8,48.8,44.6,98,84,65,30.41,30.31,4,2,8,0.00
2013-10-14,66.3,52.7,42.5,52.3,47.7,42.2,100,85,49,30.38,30.24,3,1,8,0.00
2013-10-15,66.5,57.4,47.8,58.3,51.8,39.4,100,83,57,30.27,30.13,3,0,8,0.00
2013-10-16,59.7,54.7,48.9,55.5,50.7,43.4,96,87,74,30.13,29.92,3,0,8,0.00
2013-10-17,71.9,61.9,56.4,60.7,57.6,54.0,100,87,58,29.91,29.66,5,1,12,0.03
2013-10-18,65.3,56.9,47.8,61.3,48.7,40.1,100,76,50,29.95,29.63,4,1,11,0.03
2013-10-19,62.9,51.8,42.7,50.6,43.5,39.7,98,75,46,29.98,29.73,6,2,11,0.10
2013-10-20,58.6,50.2,42.4,51.0,41.3,35.4,99,74,44,30.05,29.73,3,1,8,0.00
2013-10-21,63.1,51.5,41.0,44.7,40.2,36.8,88,67,43,30.14,29.97,6,2,9,0.00
2013-10-22,57.4,49.7,40.1,50.8,45.4,36.8,97,85,72,29.98,29.74,5,1,8,0.00
2013-10-23,50.8,42.1,35.3,37.2,34.5,31.5,94,75,51,29.82,29.63,3,1,8,0.00
2013-10-24,48.8,40.3,32.5,37.6,31.7,27.7,95,73,47,29.95,29.73,4,1,8,0.00
2013-10-25,47.1,38.8,32.1,34.1,30.9,28.5,90,74,57,30.21,29.95,5,1,9,0.00
2013-10-26,52.2,42.2,33.0,33.5,31.6,28.6,94,69,42,30.21,29.89,7,2,12,0.00
2013-10-27,54.4,45.2,36.5,36.2,31.9,28.3,82,61,40,30.11,29.84,4,1,9,0.00
2013-10-28,57.1,43.4,33.4,37.7,33.2,29.9,89,69,46,30.34,30.10,4,1,8,0.00
2013-10-29,49.2,39.0,32.5,30.9,27.6,24.7,80,64,45,30.44,30.35,4,1,8,0.00
2013-10-30,50.3,42.3,33.0,46.1,37.2,24.4,99,82,67,30.37,30.21,4,0,8,0.00
2013-10-31,58.2,51.1,42.0,58.2,51.0,41.7,100,100,98,30.26,29.81,6,2,15,0.24
2013-11-1,65.3,59.9,51.6,62.2,55.8,44.6,100,87,67,29.80,29.49,8,3,15,0.24
2013-11-2,63.9,51.3,42.3,48.3,44.2,41.0,95,78,51,29.77,29.61,4,1,8,0.01
2013-11-3,45.4,36.6,28.4,42.8,30.3,16.1,93,78,58,30.46,29.76,8,2,13,0.00
2013-11-4,42.4,32.3,24.6,22.8,18.4,15.2,78,58,35,30.70,30.47,6,1,8,0.00
2013-11-5,50.5,40.1,30.3,38.6,30.9,18.1,86,70,57,30.71,30.51,6,1,8,0.00
2013-11-6,55.1,48.5,39.8,48.2,43.9,38.1,96,84,70,30.51,30.06,7,2,12,0.00
2013-11-7,56.9,48.5,37.0,55.0,46.5,32.3,98,93,83,30.06,29.73,5,2,10,0.13
2013-11-8,44.4,37.1,31.7,33.7,29.9,26.4,89,75,58,30.17,29.87,4,1,10,0.00
2013-11-9,43.4,37.1,29.0,31.3,28.3,24.6,85,71,59,30.27,30.00,4,1,8,0.00
2013-11-10,49.1,42.9,40.3,39.8,34.5,30.6,92,72,57,30.00,29.82,3,1,8,0.02
2013-11-11,47.7,42.2,36.4,33.6,30.8,28.8,82,64,51,30.17,29.95,5,2,9,0.00
2013-11-12,45.5,30.0,23.3,36.6,23.8,17.3,95,78,61,30.26,29.93,7,3,13,0.02
2013-11-13,33.4,26.4,21.4,20.3,17.0,13.3,81,68,45,30.36,30.25,6,2,18,0.02
2013-11-14,49.6,38.8,27.4,23.2,19.4,15.5,73,48,29,30.25,30.13,4,2,8,0.00
2013-11-15,41.2,38.5,36.4,18.1,16.7,15.0,46,41,36,30.23,30.17,2,0,8,0.00
2013-11-17,56.7,55.4,51.2,56.7,55.4,51.2,100,100,100,30.18,29.79,7,4,16,0.04
2013-11-18,60.9,54.5,43.0,58.8,44.1,29.1,100,70,42,29.78,29.56,8,3,12,0.41
2013-11-19,43.1,35.8,27.8,31.8,25.0,19.6,77,65,54,30.34,29.73,10,4,15,0.00
2013-11-20,38.6,28.0,21.4,20.1,18.4,16.0,85,68,43,30.65,30.34,5,2,9,0.00
2013-11-21,44.3,35.7,22.6,37.3,25.2,14.3,85,66,43,30.66,30.40,4,1,8,0.00
2013-11-22,48.1,44.7,41.1,46.8,43.5,37.2,100,96,85,30.40,29.88,3,1,8,0.16
2013-11-23,48.0,35.5,23.4,46.3,26.6,12.8,95,71,45,30.02,29.86,7,2,12,0.01
2013-11-24,23.5,19.3,15.6,13.3,6.4,1.1,85,58,39,30.32,29.92,10,4,16,0.00
2013-11-25,30.9,22.4,11.6,16.0,11.8,6.6,80,64,50,30.47,30.32,4,2,9,0.00
2013-11-26,37.6,30.9,27.4,37.3,23.8,14.2,99,76,56,30.34,29.92,5,2,10,0.43
2013-11-27,56.8,40.8,30.3,56.8,39.8,27.2,100,96,83,29.92,29.35,10,5,15,1.66
2013-11-28,30.1,24.8,18.6,27.8,16.3,12.3,91,70,52,30.48,29.64,6,2,10,0.00
2013-11-29,31.9,23.9,19.2,21.8,17.3,13.1,90,76,59,30.75,30.47,5,1,8,0.00
2013-11-30,30.3,22.8,13.0,25.8,13.6,9.9,89,69,44,30.79,30.42,5,2,8,0.00
2013-12-1,44.4,36.1,30.5,36.2,31.5,26.2,95,83,68,30.42,30.03,3,0,8,0.01
2013-12-2,40.4,34.3,30.8,37.4,32.2,28.1,99,92,80,30.03,29.91,3,0,8,0.00
2013-12-3,46.2,35.6,28.6,39.1,32.9,28.1,100,90,71,30.02,29.90,3,1,8,0.01
2013-12-4,48.4,38.6,29.6,37.4,32.5,26.8,91,79,61,30.17,30.02,4,1,8,0.00
2013-12-5,52.4,48.2,42.4,52.4,47.7,37.3,100,98,82,30.17,29.94,5,2,9,0.11
2013-12-6,52.8,40.2,31.1,52.8,38.8,29.8,100,95,83,30.16,29.88,9,3,15,0.36
2013-12-7,33.2,29.0,22.0,30.0,26.3,19.0,97,90,76,30.52,30.10,5,2,9,0.03
2013-12-8,26.9,23.8,18.0,22.1,19.8,16.3,93,85,74,30.62,30.46,5,1,8,0.00
2013-12-9,33.6,29.7,23.5,33.3,29.0,21.3,100,97,90,30.46,29.96,7,2,11,0.00
2013-12-10,31.7,28.5,18.4,31.0,27.6,16.5,99,96,92,30.06,29.84,3,0,8,0.00
2013-12-11,25.0,21.0,17.0,19.7,16.9,14.1,94,84,78,30.27,30.06,3,1,8,0.00
2013-12-12,21.5,16.9,12.1,18.1,10.7,6.6,92,77,59,30.34,30.19,4,1,8,0.00
2013-12-13,28.1,20.2,13.7,18.4,12.5,6.3,86,72,63,30.39,30.07,5,2,8,0.00
2013-12-14,18.8,15.1,11.6,17.4,11.8,8.7,94,87,71,30.54,29.98,8,3,15,0.00
2013-12-15,28.8,25.7,19.0,27.8,24.3,17.6,98,94,86,29.98,29.56,8,2,16,0.00
2013-12-16,26.0,20.6,11.4,22.9,13.3,6.5,92,74,55,30.22,29.78,4,1,9,0.06
2013-12-17,18.3,14.2,7.2,16.3,11.9,4.4,94,90,83,30.25,29.97,3,1,9,0.00
2013-12-18,31.8,24.9,18.0,23.5,20.2,15.7,94,83,70,30.14,29.97,3,1,8,0.13
2013-12-19,41.6,33.1,24.8,29.0,24.2,19.8,82,70,54,30.17,30.01,5,2,11,0.19
2013-12-20,51.5,41.5,34.1,34.0,31.3,26.8,80,67,50,30.13,29.96,5,1,8,0.30
2013-12-21,54.6,49.3,42.5,50.3,42.2,32.4,94,77,65,30.00,29.89,4,1,11,0.01
2013-12-22,63.5,58.9,51.5,61.5,57.0,49.9,100,93,81,29.92,29.75,9,4,15,0.03
2013-12-23,57.9,47.3,32.4,55.7,46.4,27.5,100,97,82,30.13,29.91,7,2,11,0.70
2013-12-24,32.4,27.1,19.0,27.8,20.5,9.6,86,76,62,30.30,30.09,7,3,9,0.00
2013-12-25,20.9,15.9,10.3,11.5,7.7,4.9,85,70,57,30.53,30.30,6,2,10,0.00
2013-12-26,27.5,24.4,19.4,25.3,21.1,11.8,94,87,72,30.47,30.16,3,1,8,0.00
2013-12-27,33.7,26.9,21.4,24.1,21.7,17.8,94,81,66,30.33,30.25,4,1,8,0.02
2013-12-28,46.2,35.6,26.1,30.7,26.7,22.8,88,71,52,30.28,30.06,5,1,13,0.00
2013-12-29,42.0,38.5,33.3,37.6,32.6,28.5,99,81,62,30.06,29.48,6,1,10,0.90
2013-12-30,36.7,26.6,11.6,34.9,22.6,7.4,100,85,66,30.20,29.65,7,2,13,0.00
2013-12-31,22.7,16.8,9.8,19.6,12.3,6.2,93,82,64,30.26,30.06,4,1,8,0.00
2014-1-1,26.8,20.2,14.3,17.3,12.7,7.1,92,73,55,30.40,30.25,4,1,10,0.00
2014-1-2,19.4,15.7,8.3,17.4,13.2,5.7,92,90,87,30.33,29.78,6,3,11,0.00